sensor_id;sensor_type;location;lat;lon;timestamp;temperature;humidity
42907;DHT22;28552;51.146;6.576;2024-03-08T00:02:45;2.40;99.90
42907;DHT22;28552;51.146;6.576;2024-03-08T00:05:46;2.40;99.90
42907;DHT22;28552;51.146;6.576;2024-03-08T00:08:47;2.30;99.90
42907;DHT22;28552;51.146;6.576;2024-03-08T00:11:48;2.30;99.90
42907;DHT22;28552;51.146;6.576;2024-03-08T00:14:50;2.20;99.90
42907;DHT22;28552;51.146;6.576;2024-03-08T00:17:51;2.20;99.90
42907;DHT22;28552;51.146;6.576;2024-03-08T00:20:52;2.20;99.90
42907;DHT22;28552;51.146;6.576;2024-03-08T00:23:53;2.10;99.90
42907;DHT22;28552;51.146;6.576;2024-03-08T00:26:55;2.10;99.90
42907;DHT22;28552;51.146;6.576;2024-03-08T00:29:56;2.00;99.90
42907;DHT22;28552;51.146;6.576;2024-03-08T00:32:57;2.00;99.90
42907;DHT22;28552;51.146;6.576;2024-03-08T00:35:58;1.90;99.90
42907;DHT22;28552;51.146;6.576;2024-03-08T00:38:58;1.90;99.90
42907;DHT22;28552;51.146;6.576;2024-03-08T00:42:01;1.90;99.90
42907;DHT22;28552;51.146;6.576;2024-03-08T00:45:02;1.90;99.90
42907;DHT22;28552;51.146;6.576;2024-03-08T00:48:03;1.90;99.90
42907;DHT22;28552;51.146;6.576;2024-03-08T00:51:06;1.90;99.90
42907;DHT22;28552;51.146;6.576;2024-03-08T00:54:07;1.90;99.90
42907;DHT22;28552;51.146;6.576;2024-03-08T00:57:08;1.90;99.90
42907;DHT22;28552;51.146;6.576;2024-03-08T01:00:09;1.90;99.90
42907;DHT22;28552;51.146;6.576;2024-03-08T01:03:12;2.00;99.90
42907;DHT22;28552;51.146;6.576;2024-03-08T01:06:13;1.90;99.90
42907;DHT22;28552;51.146;6.576;2024-03-08T01:09:14;2.00;99.90
42907;DHT22;28552;51.146;6.576;2024-03-08T01:12:17;1.90;99.90
42907;DHT22;28552;51.146;6.576;2024-03-08T01:15:23;1.90;99.90
42907;DHT22;28552;51.146;6.576;2024-03-08T01:18:24;1.90;99.90
42907;DHT22;28552;51.146;6.576;2024-03-08T01:21:24;1.90;99.90
42907;DHT22;28552;51.146;6.576;2024-03-08T01:24:25;1.90;99.90
42907;DHT22;28552;51.146;6.576;2024-03-08T01:27:26;1.80;99.90
42907;DHT22;28552;51.146;6.576;2024-03-08T01:30:27;1.80;99.90
42907;DHT22;28552;51.146;6.576;2024-03-08T01:33:28;1.70;99.90
42907;DHT22;28552;51.146;6.576;2024-03-08T01:36:30;1.70;99.90
42907;DHT22;28552;51.146;6.576;2024-03-08T01:39:31;1.70;99.90
42907;DHT22;28552;51.146;6.576;2024-03-08T01:42:32;1.60;99.90
42907;DHT22;28552;51.146;6.576;2024-03-08T01:45:33;1.60;99.90
42907;DHT22;28552;51.146;6.576;2024-03-08T01:51:45;1.60;99.90
42907;DHT22;28552;51.146;6.576;2024-03-08T01:54:46;1.70;99.90
42907;DHT22;28552;51.146;6.576;2024-03-08T01:57:47;1.60;99.90
42907;DHT22;28552;51.146;6.576;2024-03-08T02:00:49;1.70;99.90
42907;DHT22;28552;51.146;6.576;2024-03-08T02:03:50;1.70;99.90
42907;DHT22;28552;51.146;6.576;2024-03-08T02:06:51;1.80;99.90
42907;DHT22;28552;51.146;6.576;2024-03-08T02:09:52;1.80;99.90
42907;DHT22;28552;51.146;6.576;2024-03-08T02:12:53;1.80;99.90
42907;DHT22;28552;51.146;6.576;2024-03-08T02:15:56;1.80;99.90
42907;DHT22;28552;51.146;6.576;2024-03-08T02:18:57;1.90;99.90
42907;DHT22;28552;51.146;6.576;2024-03-08T02:21:58;1.80;99.90
42907;DHT22;28552;51.146;6.576;2024-03-08T02:24:59;1.80;99.90
42907;DHT22;28552;51.146;6.576;2024-03-08T02:28:02;1.80;99.90
42907;DHT22;28552;51.146;6.576;2024-03-08T02:31:03;1.80;99.90
42907;DHT22;28552;51.146;6.576;2024-03-08T02:34:08;1.80;99.90
42907;DHT22;28552;51.146;6.576;2024-03-08T02:37:10;1.80;99.90
42907;DHT22;28552;51.146;6.576;2024-03-08T02:40:11;1.80;99.90
42907;DHT22;28552;51.146;6.576;2024-03-08T02:43:13;1.80;99.90
42907;DHT22;28552;51.146;6.576;2024-03-08T02:46:15;1.80;99.90
42907;DHT22;28552;51.146;6.576;2024-03-08T02:49:16;1.80;99.90
42907;DHT22;28552;51.146;6.576;2024-03-08T02:52:17;1.80;99.90
42907;DHT22;28552;51.146;6.576;2024-03-08T02:55:17;1.80;99.90
42907;DHT22;28552;51.146;6.576;2024-03-08T02:58:18;1.80;99.90
42907;DHT22;28552;51.146;6.576;2024-03-08T03:01:19;1.80;99.90
42907;DHT22;28552;51.146;6.576;2024-03-08T03:04:20;1.70;99.90
42907;DHT22;28552;51.146;6.576;2024-03-08T03:07:21;1.70;99.90
42907;DHT22;28552;51.146;6.576;2024-03-08T03:10:22;1.70;99.90
42907;DHT22;28552;51.146;6.576;2024-03-08T03:13:23;1.70;99.90
42907;DHT22;28552;51.146;6.576;2024-03-08T03:16:24;1.60;99.90
42907;DHT22;28552;51.146;6.576;2024-03-08T03:19:24;1.60;99.90
42907;DHT22;28552;51.146;6.576;2024-03-08T03:22:25;1.60;99.90
42907;DHT22;28552;51.146;6.576;2024-03-08T03:28:37;1.50;99.90
42907;DHT22;28552;51.146;6.576;2024-03-08T03:31:39;1.50;99.90
42907;DHT22;28552;51.146;6.576;2024-03-08T03:34:41;1.50;99.90
42907;DHT22;28552;51.146;6.576;2024-03-08T03:37:44;1.40;99.90
42907;DHT22;28552;51.146;6.576;2024-03-08T03:40:45;1.40;99.90
42907;DHT22;28552;51.146;6.576;2024-03-08T03:43:46;1.40;99.90
42907;DHT22;28552;51.146;6.576;2024-03-08T03:46:49;1.30;99.90
42907;DHT22;28552;51.146;6.576;2024-03-08T03:49:51;1.30;99.90
42907;DHT22;28552;51.146;6.576;2024-03-08T03:52:53;1.30;99.90
42907;DHT22;28552;51.146;6.576;2024-03-08T03:55:54;1.20;99.90
42907;DHT22;28552;51.146;6.576;2024-03-08T03:58:55;1.20;99.90
42907;DHT22;28552;51.146;6.576;2024-03-08T04:01:56;1.20;99.90
42907;DHT22;28552;51.146;6.576;2024-03-08T04:04:56;1.30;99.90
42907;DHT22;28552;51.146;6.576;2024-03-08T04:07:57;1.20;99.90
42907;DHT22;28552;51.146;6.576;2024-03-08T04:10:58;1.30;99.90
42907;DHT22;28552;51.146;6.576;2024-03-08T04:13:59;1.40;99.90
42907;DHT22;28552;51.146;6.576;2024-03-08T04:16:59;1.40;99.90
42907;DHT22;28552;51.146;6.576;2024-03-08T04:20:00;1.40;99.90
42907;DHT22;28552;51.146;6.576;2024-03-08T04:23:02;1.50;99.90
42907;DHT22;28552;51.146;6.576;2024-03-08T04:26:04;1.40;99.90
42907;DHT22;28552;51.146;6.576;2024-03-08T04:29:06;1.50;99.90
42907;DHT22;28552;51.146;6.576;2024-03-08T04:32:08;1.50;99.90
42907;DHT22;28552;51.146;6.576;2024-03-08T04:35:09;1.40;99.90
42907;DHT22;28552;51.146;6.576;2024-03-08T04:38:10;1.40;99.90
42907;DHT22;28552;51.146;6.576;2024-03-08T04:41:10;1.40;99.90
42907;DHT22;28552;51.146;6.576;2024-03-08T04:44:11;1.40;99.90
42907;DHT22;28552;51.146;6.576;2024-03-08T04:47:13;1.30;99.90
42907;DHT22;28552;51.146;6.576;2024-03-08T04:50:14;1.30;99.90
42907;DHT22;28552;51.146;6.576;2024-03-08T04:53:15;1.20;99.90
42907;DHT22;28552;51.146;6.576;2024-03-08T04:56:15;1.20;99.90
42907;DHT22;28552;51.146;6.576;2024-03-08T04:59:16;1.20;99.90
42907;DHT22;28552;51.146;6.576;2024-03-08T05:02:17;1.10;99.90
42907;DHT22;28552;51.146;6.576;2024-03-08T05:05:18;1.10;99.90
42907;DHT22;28552;51.146;6.576;2024-03-08T05:08:19;1.00;99.90
42907;DHT22;28552;51.146;6.576;2024-03-08T05:11:20;1.00;99.90
42907;DHT22;28552;51.146;6.576;2024-03-08T05:14:20;0.90;99.90
42907;DHT22;28552;51.146;6.576;2024-03-08T05:17:21;1.00;99.90
42907;DHT22;28552;51.146;6.576;2024-03-08T05:20:24;0.90;99.90
42907;DHT22;28552;51.146;6.576;2024-03-08T05:23:26;0.90;99.90
42907;DHT22;28552;51.146;6.576;2024-03-08T05:26:27;0.80;99.90
42907;DHT22;28552;51.146;6.576;2024-03-08T05:29:27;0.80;99.90
42907;DHT22;28552;51.146;6.576;2024-03-08T05:32:29;0.80;99.90
42907;DHT22;28552;51.146;6.576;2024-03-08T05:35:30;0.80;99.90
42907;DHT22;28552;51.146;6.576;2024-03-08T05:38:31;0.70;99.90
42907;DHT22;28552;51.146;6.576;2024-03-08T05:41:32;0.60;99.90
42907;DHT22;28552;51.146;6.576;2024-03-08T05:44:32;0.60;99.90
42907;DHT22;28552;51.146;6.576;2024-03-08T05:47:34;0.50;99.90
42907;DHT22;28552;51.146;6.576;2024-03-08T05:50:35;0.50;99.90
42907;DHT22;28552;51.146;6.576;2024-03-08T05:53:36;0.50;99.90
42907;DHT22;28552;51.146;6.576;2024-03-08T05:56:39;0.40;99.90
42907;DHT22;28552;51.146;6.576;2024-03-08T05:59:44;0.40;99.90
42907;DHT22;28552;51.146;6.576;2024-03-08T06:02:45;0.30;99.90
42907;DHT22;28552;51.146;6.576;2024-03-08T06:05:45;0.30;99.90
42907;DHT22;28552;51.146;6.576;2024-03-08T06:08:46;0.30;99.90
42907;DHT22;28552;51.146;6.576;2024-03-08T06:11:49;0.40;99.90
42907;DHT22;28552;51.146;6.576;2024-03-08T06:14:50;0.30;99.90
42907;DHT22;28552;51.146;6.576;2024-03-08T06:17:50;0.30;99.90
42907;DHT22;28552;51.146;6.576;2024-03-08T06:20:53;0.30;99.90
42907;DHT22;28552;51.146;6.576;2024-03-08T06:23:55;0.30;99.90
42907;DHT22;28552;51.146;6.576;2024-03-08T06:26:58;0.30;99.90
42907;DHT22;28552;51.146;6.576;2024-03-08T06:29:59;0.30;99.90
42907;DHT22;28552;51.146;6.576;2024-03-08T06:33:00;0.30;99.90
42907;DHT22;28552;51.146;6.576;2024-03-08T06:36:01;0.40;99.90
42907;DHT22;28552;51.146;6.576;2024-03-08T06:39:02;0.40;99.90
42907;DHT22;28552;51.146;6.576;2024-03-08T06:42:09;0.50;99.90
42907;DHT22;28552;51.146;6.576;2024-03-08T06:45:49;0.60;99.90
42907;DHT22;28552;51.146;6.576;2024-03-08T06:49:18;0.70;99.90
42907;DHT22;28552;51.146;6.576;2024-03-08T06:52:19;0.80;99.90
42907;DHT22;28552;51.146;6.576;2024-03-08T06:55:20;0.90;99.90
42907;DHT22;28552;51.146;6.576;2024-03-08T06:58:21;1.00;99.90
42907;DHT22;28552;51.146;6.576;2024-03-08T07:01:22;1.00;99.90
42907;DHT22;28552;51.146;6.576;2024-03-08T07:04:22;1.10;99.90
42907;DHT22;28552;51.146;6.576;2024-03-08T07:07:28;1.20;99.90
42907;DHT22;28552;51.146;6.576;2024-03-08T07:10:31;1.30;99.90
42907;DHT22;28552;51.146;6.576;2024-03-08T07:13:31;1.50;99.90
42907;DHT22;28552;51.146;6.576;2024-03-08T07:16:32;1.80;99.90
42907;DHT22;28552;51.146;6.576;2024-03-08T07:19:33;2.00;99.90
42907;DHT22;28552;51.146;6.576;2024-03-08T07:22:34;2.30;99.90
42907;DHT22;28552;51.146;6.576;2024-03-08T07:25:37;2.60;99.90
42907;DHT22;28552;51.146;6.576;2024-03-08T07:28:39;2.80;99.90
42907;DHT22;28552;51.146;6.576;2024-03-08T07:31:40;3.10;99.90
42907;DHT22;28552;51.146;6.576;2024-03-08T07:34:44;3.30;99.90
42907;DHT22;28552;51.146;6.576;2024-03-08T07:37:45;3.60;99.90
42907;DHT22;28552;51.146;6.576;2024-03-08T07:40:46;3.80;99.90
42907;DHT22;28552;51.146;6.576;2024-03-08T07:43:47;4.10;99.90
42907;DHT22;28552;51.146;6.576;2024-03-08T07:46:49;4.30;99.90
42907;DHT22;28552;51.146;6.576;2024-03-08T08:18:23;6.60;99.90
42907;DHT22;28552;51.146;6.576;2024-03-08T08:21:25;6.70;99.90
42907;DHT22;28552;51.146;6.576;2024-03-08T08:24:26;6.60;99.90
42907;DHT22;28552;51.146;6.576;2024-03-08T08:27:27;6.40;99.90
42907;DHT22;28552;51.146;6.576;2024-03-08T08:30:38;6.10;99.90
42907;DHT22;28552;51.146;6.576;2024-03-08T08:33:41;6.00;99.90
42907;DHT22;28552;51.146;6.576;2024-03-08T08:36:47;5.90;99.90
42907;DHT22;28552;51.146;6.576;2024-03-08T08:39:49;5.70;99.90
42907;DHT22;28552;51.146;6.576;2024-03-08T08:42:52;5.80;99.90
42907;DHT22;28552;51.146;6.576;2024-03-08T08:45:56;5.80;99.90
42907;DHT22;28552;51.146;6.576;2024-03-08T08:49:00;5.80;99.90
42907;DHT22;28552;51.146;6.576;2024-03-08T08:52:06;5.80;99.90
42907;DHT22;28552;51.146;6.576;2024-03-08T08:55:15;5.90;99.90
42907;DHT22;28552;51.146;6.576;2024-03-08T08:58:22;5.90;99.90
42907;DHT22;28552;51.146;6.576;2024-03-08T09:01:45;5.90;99.90
42907;DHT22;28552;51.146;6.576;2024-03-08T09:04:48;6.00;99.90
42907;DHT22;28552;51.146;6.576;2024-03-08T09:07:52;6.00;99.90
42907;DHT22;28552;51.146;6.576;2024-03-08T09:11:14;6.20;99.90
42907;DHT22;28552;51.146;6.576;2024-03-08T09:14:22;6.20;99.90
42907;DHT22;28552;51.146;6.576;2024-03-08T09:17:25;6.30;99.90
42907;DHT22;28552;51.146;6.576;2024-03-08T09:20:27;6.40;99.90
42907;DHT22;28552;51.146;6.576;2024-03-08T09:23:30;6.40;99.90
42907;DHT22;28552;51.146;6.576;2024-03-08T09:26:32;6.50;99.90
42907;DHT22;28552;51.146;6.576;2024-03-08T09:29:35;6.60;99.90
42907;DHT22;28552;51.146;6.576;2024-03-08T09:32:38;6.70;99.90
42907;DHT22;28552;51.146;6.576;2024-03-08T09:36:03;6.80;99.90
42907;DHT22;28552;51.146;6.576;2024-03-08T09:39:09;6.80;99.90
42907;DHT22;28552;51.146;6.576;2024-03-08T09:42:21;6.90;99.90
42907;DHT22;28552;51.146;6.576;2024-03-08T09:45:32;7.00;99.90
42907;DHT22;28552;51.146;6.576;2024-03-08T09:48:57;7.00;99.90
42907;DHT22;28552;51.146;6.576;2024-03-08T09:52:08;7.10;99.90
42907;DHT22;28552;51.146;6.576;2024-03-08T09:55:15;7.20;99.90
42907;DHT22;28552;51.146;6.576;2024-03-08T09:58:22;7.20;99.90
42907;DHT22;28552;51.146;6.576;2024-03-08T10:02:04;7.30;99.90
42907;DHT22;28552;51.146;6.576;2024-03-08T10:05:30;7.40;99.90
42907;DHT22;28552;51.146;6.576;2024-03-08T10:09:12;7.50;99.90
42907;DHT22;28552;51.146;6.576;2024-03-08T10:12:36;7.60;99.90
42907;DHT22;28552;51.146;6.576;2024-03-08T10:16:19;7.70;99.90
42907;DHT22;28552;51.146;6.576;2024-03-08T10:19:58;7.80;99.90
42907;DHT22;28552;51.146;6.576;2024-03-08T10:23:31;7.90;99.90
42907;DHT22;28552;51.146;6.576;2024-03-08T10:26:35;8.00;99.90
42907;DHT22;28552;51.146;6.576;2024-03-08T10:30:23;8.00;99.90
42907;DHT22;28552;51.146;6.576;2024-03-08T10:33:32;8.10;99.90
42907;DHT22;28552;51.146;6.576;2024-03-08T10:36:53;8.10;99.90
42907;DHT22;28552;51.146;6.576;2024-03-08T10:40:04;8.10;99.90
42907;DHT22;28552;51.146;6.576;2024-03-08T10:44:10;8.20;99.90
42907;DHT22;28552;51.146;6.576;2024-03-08T10:47:41;8.20;99.90
42907;DHT22;28552;51.146;6.576;2024-03-08T10:51:14;8.30;99.90
42907;DHT22;28552;51.146;6.576;2024-03-08T10:55:01;8.30;99.90
42907;DHT22;28552;51.146;6.576;2024-03-08T10:58:30;8.40;99.90
42907;DHT22;28552;51.146;6.576;2024-03-08T11:02:21;8.50;99.90
42907;DHT22;28552;51.146;6.576;2024-03-08T11:05:55;8.50;99.90
42907;DHT22;28552;51.146;6.576;2024-03-08T11:19:33;8.80;99.90
42907;DHT22;28552;51.146;6.576;2024-03-08T11:22:37;8.90;99.90
42907;DHT22;28552;51.146;6.576;2024-03-08T11:25:43;9.00;99.90
42907;DHT22;28552;51.146;6.576;2024-03-08T11:28:51;9.10;99.90
42907;DHT22;28552;51.146;6.576;2024-03-08T11:32:11;9.10;99.90
42907;DHT22;28552;51.146;6.576;2024-03-08T11:35:20;9.10;99.90
42907;DHT22;28552;51.146;6.576;2024-03-08T13:21:06;10.40;97.10
42907;DHT22;28552;51.146;6.576;2024-03-08T14:13:29;11.60;97.20
42907;DHT22;28552;51.146;6.576;2024-03-08T14:58:53;11.60;93.80
42907;DHT22;28552;51.146;6.576;2024-03-08T15:01:55;11.60;93.90
42907;DHT22;28552;51.146;6.576;2024-03-08T15:04:56;11.60;94.10
42907;DHT22;28552;51.146;6.576;2024-03-08T15:07:58;11.70;94.40
42907;DHT22;28552;51.146;6.576;2024-03-08T15:11:01;11.70;94.70
42907;DHT22;28552;51.146;6.576;2024-03-08T15:14:01;11.70;94.90
42907;DHT22;28552;51.146;6.576;2024-03-08T15:17:02;11.70;95.30
42907;DHT22;28552;51.146;6.576;2024-03-08T15:20:10;11.70;95.50
42907;DHT22;28552;51.146;6.576;2024-03-08T15:23:24;11.60;95.30
42907;DHT22;28552;51.146;6.576;2024-03-08T15:26:25;11.60;95.30
42907;DHT22;28552;51.146;6.576;2024-03-08T15:29:26;11.50;95.50
42907;DHT22;28552;51.146;6.576;2024-03-08T15:32:29;11.50;95.00
42907;DHT22;28552;51.146;6.576;2024-03-08T15:35:32;11.50;95.10
42907;DHT22;28552;51.146;6.576;2024-03-08T15:38:33;11.50;95.40
42907;DHT22;28552;51.146;6.576;2024-03-08T15:44:44;11.50;95.80
42907;DHT22;28552;51.146;6.576;2024-03-08T15:47:45;11.40;95.50
42907;DHT22;28552;51.146;6.576;2024-03-08T15:50:46;11.40;95.60
42907;DHT22;28552;51.146;6.576;2024-03-08T15:53:46;11.30;95.70
42907;DHT22;28552;51.146;6.576;2024-03-08T15:56:53;11.30;95.70
42907;DHT22;28552;51.146;6.576;2024-03-08T15:59:54;11.30;95.60
42907;DHT22;28552;51.146;6.576;2024-03-08T16:06:10;11.20;95.60
42907;DHT22;28552;51.146;6.576;2024-03-08T16:09:11;11.20;95.70
42907;DHT22;28552;51.146;6.576;2024-03-08T16:12:15;11.10;95.80
42907;DHT22;28552;51.146;6.576;2024-03-08T16:15:16;11.00;95.90
42907;DHT22;28552;51.146;6.576;2024-03-08T16:18:17;11.00;96.00
42907;DHT22;28552;51.146;6.576;2024-03-08T16:21:21;10.90;96.00
42907;DHT22;28552;51.146;6.576;2024-03-08T16:24:23;10.90;95.80
42907;DHT22;28552;51.146;6.576;2024-03-08T16:27:23;10.80;95.90
42907;DHT22;28552;51.146;6.576;2024-03-08T16:30:24;10.70;96.00
42907;DHT22;28552;51.146;6.576;2024-03-08T16:33:27;10.70;96.20
42907;DHT22;28552;51.146;6.576;2024-03-08T16:36:27;10.60;96.30
42907;DHT22;28552;51.146;6.576;2024-03-08T16:39:28;10.50;96.40
42907;DHT22;28552;51.146;6.576;2024-03-08T16:42:29;10.50;96.60
42907;DHT22;28552;51.146;6.576;2024-03-08T16:48:40;10.30;96.90
42907;DHT22;28552;51.146;6.576;2024-03-08T17:20:35;8.90;99.50
42907;DHT22;28552;51.146;6.576;2024-03-08T17:23:37;8.90;98.80
42907;DHT22;28552;51.146;6.576;2024-03-08T17:26:37;8.80;97.80
42907;DHT22;28552;51.146;6.576;2024-03-08T17:29:42;8.80;97.50
42907;DHT22;28552;51.146;6.576;2024-03-08T17:33:17;8.80;97.20
42907;DHT22;28552;51.146;6.576;2024-03-08T17:36:25;8.80;96.90
42907;DHT22;28552;51.146;6.576;2024-03-08T17:39:38;8.80;96.70
42907;DHT22;28552;51.146;6.576;2024-03-08T17:42:40;8.70;96.70
42907;DHT22;28552;51.146;6.576;2024-03-08T17:45:41;8.70;96.70
42907;DHT22;28552;51.146;6.576;2024-03-08T17:48:45;8.60;96.90
42907;DHT22;28552;51.146;6.576;2024-03-08T17:51:46;8.60;97.10
42907;DHT22;28552;51.146;6.576;2024-03-08T17:54:46;8.40;97.30
42907;DHT22;28552;51.146;6.576;2024-03-08T17:57:48;8.30;97.80
42907;DHT22;28552;51.146;6.576;2024-03-08T18:00:49;8.30;97.70
42907;DHT22;28552;51.146;6.576;2024-03-08T18:03:51;8.20;97.80
42907;DHT22;28552;51.146;6.576;2024-03-08T18:06:53;8.20;98.10
42907;DHT22;28552;51.146;6.576;2024-03-08T18:09:54;8.10;98.20
42907;DHT22;28552;51.146;6.576;2024-03-08T18:12:56;8.00;98.50
42907;DHT22;28552;51.146;6.576;2024-03-08T18:15:58;7.90;98.80
42907;DHT22;28552;51.146;6.576;2024-03-08T18:19:01;7.80;99.10
42907;DHT22;28552;51.146;6.576;2024-03-08T18:22:07;7.70;99.20
42907;DHT22;28552;51.146;6.576;2024-03-08T18:25:09;7.70;99.40
42907;DHT22;28552;51.146;6.576;2024-03-08T18:28:15;7.70;99.50
42907;DHT22;28552;51.146;6.576;2024-03-08T18:31:17;7.70;99.60
42907;DHT22;28552;51.146;6.576;2024-03-08T19:06:04;7.30;99.90
42907;DHT22;28552;51.146;6.576;2024-03-08T19:09:04;7.20;99.90
42907;DHT22;28552;51.146;6.576;2024-03-08T19:12:10;7.20;99.90
42907;DHT22;28552;51.146;6.576;2024-03-08T19:15:14;7.20;99.90
42907;DHT22;28552;51.146;6.576;2024-03-08T19:18:17;7.30;99.90
42907;DHT22;28552;51.146;6.576;2024-03-08T19:21:18;7.30;99.90
42907;DHT22;28552;51.146;6.576;2024-03-08T19:24:18;7.30;99.90
42907;DHT22;28552;51.146;6.576;2024-03-08T19:27:19;7.30;99.90
42907;DHT22;28552;51.146;6.576;2024-03-08T19:30:20;7.30;99.90
42907;DHT22;28552;51.146;6.576;2024-03-08T19:33:27;7.20;99.90
42907;DHT22;28552;51.146;6.576;2024-03-08T19:36:29;7.20;99.90
42907;DHT22;28552;51.146;6.576;2024-03-08T19:39:30;7.20;99.90
42907;DHT22;28552;51.146;6.576;2024-03-08T19:42:31;7.10;99.90
42907;DHT22;28552;51.146;6.576;2024-03-08T19:45:32;7.10;99.90
42907;DHT22;28552;51.146;6.576;2024-03-08T19:48:34;7.00;99.90
42907;DHT22;28552;51.146;6.576;2024-03-08T19:51:36;6.90;99.90
42907;DHT22;28552;51.146;6.576;2024-03-08T19:54:37;6.80;99.90
42907;DHT22;28552;51.146;6.576;2024-03-08T19:57:40;6.70;99.90
42907;DHT22;28552;51.146;6.576;2024-03-08T20:00:42;6.60;99.90
42907;DHT22;28552;51.146;6.576;2024-03-08T20:03:44;6.50;99.90
42907;DHT22;28552;51.146;6.576;2024-03-08T20:06:45;6.40;99.90
42907;DHT22;28552;51.146;6.576;2024-03-08T20:09:46;6.30;99.90
42907;DHT22;28552;51.146;6.576;2024-03-08T20:12:47;6.20;99.90
42907;DHT22;28552;51.146;6.576;2024-03-08T20:15:48;6.20;99.90
42907;DHT22;28552;51.146;6.576;2024-03-08T20:18:53;6.10;99.90
42907;DHT22;28552;51.146;6.576;2024-03-08T20:21:54;6.00;99.90
42907;DHT22;28552;51.146;6.576;2024-03-08T20:24:55;6.00;99.90
42907;DHT22;28552;51.146;6.576;2024-03-08T20:27:56;6.00;99.90
42907;DHT22;28552;51.146;6.576;2024-03-08T20:30:57;5.90;99.90
42907;DHT22;28552;51.146;6.576;2024-03-08T20:33:58;5.90;99.90
42907;DHT22;28552;51.146;6.576;2024-03-08T20:36:59;5.90;99.90
42907;DHT22;28552;51.146;6.576;2024-03-08T20:40:00;5.80;99.90
42907;DHT22;28552;51.146;6.576;2024-03-08T20:43:01;5.80;99.90
42907;DHT22;28552;51.146;6.576;2024-03-08T20:46:03;5.80;99.90
42907;DHT22;28552;51.146;6.576;2024-03-08T20:49:05;5.80;99.90
42907;DHT22;28552;51.146;6.576;2024-03-08T20:52:08;5.80;99.90
42907;DHT22;28552;51.146;6.576;2024-03-08T20:55:11;5.70;99.90
42907;DHT22;28552;51.146;6.576;2024-03-08T20:58:13;5.60;99.90
42907;DHT22;28552;51.146;6.576;2024-03-08T21:01:16;5.50;99.90
42907;DHT22;28552;51.146;6.576;2024-03-08T21:04:17;5.50;99.90
42907;DHT22;28552;51.146;6.576;2024-03-08T21:07:17;5.40;99.90
42907;DHT22;28552;51.146;6.576;2024-03-08T21:10:18;5.30;99.90
42907;DHT22;28552;51.146;6.576;2024-03-08T21:13:20;5.30;99.90
42907;DHT22;28552;51.146;6.576;2024-03-08T21:16:22;5.20;99.90
42907;DHT22;28552;51.146;6.576;2024-03-08T21:19:24;5.20;99.90
42907;DHT22;28552;51.146;6.576;2024-03-08T21:22:26;5.10;99.90
42907;DHT22;28552;51.146;6.576;2024-03-08T21:25:27;5.10;99.90
42907;DHT22;28552;51.146;6.576;2024-03-08T21:28:28;5.00;99.90
42907;DHT22;28552;51.146;6.576;2024-03-08T21:31:29;4.90;99.90
42907;DHT22;28552;51.146;6.576;2024-03-08T21:34:32;4.80;99.90
42907;DHT22;28552;51.146;6.576;2024-03-08T21:37:34;4.80;99.90
42907;DHT22;28552;51.146;6.576;2024-03-08T21:40:34;4.80;99.90
42907;DHT22;28552;51.146;6.576;2024-03-08T21:43:36;4.70;99.90
42907;DHT22;28552;51.146;6.576;2024-03-08T21:46:37;4.70;99.90
42907;DHT22;28552;51.146;6.576;2024-03-08T21:49:38;4.60;99.90
42907;DHT22;28552;51.146;6.576;2024-03-08T21:52:42;4.50;99.90
42907;DHT22;28552;51.146;6.576;2024-03-08T21:55:43;4.40;99.90
42907;DHT22;28552;51.146;6.576;2024-03-08T21:58:45;4.40;99.90
42907;DHT22;28552;51.146;6.576;2024-03-08T22:01:46;4.30;99.90
42907;DHT22;28552;51.146;6.576;2024-03-08T22:04:53;4.20;99.90
42907;DHT22;28552;51.146;6.576;2024-03-08T22:07:53;4.10;99.90
42907;DHT22;28552;51.146;6.576;2024-03-08T22:10:54;4.10;99.90
42907;DHT22;28552;51.146;6.576;2024-03-08T22:13:56;4.00;99.90
42907;DHT22;28552;51.146;6.576;2024-03-08T22:16:57;4.00;99.90
42907;DHT22;28552;51.146;6.576;2024-03-08T22:19:58;3.90;99.90
42907;DHT22;28552;51.146;6.576;2024-03-08T22:23:04;3.90;99.90
42907;DHT22;28552;51.146;6.576;2024-03-08T22:26:06;3.90;99.90
42907;DHT22;28552;51.146;6.576;2024-03-08T22:29:12;3.80;99.90
42907;DHT22;28552;51.146;6.576;2024-03-08T22:32:13;3.80;99.90
42907;DHT22;28552;51.146;6.576;2024-03-08T22:35:15;3.70;99.90
42907;DHT22;28552;51.146;6.576;2024-03-08T22:38:15;3.70;99.90
42907;DHT22;28552;51.146;6.576;2024-03-08T22:41:17;3.70;99.90
42907;DHT22;28552;51.146;6.576;2024-03-08T22:44:18;3.70;99.90
42907;DHT22;28552;51.146;6.576;2024-03-08T22:47:18;3.70;99.90
42907;DHT22;28552;51.146;6.576;2024-03-08T22:50:21;3.70;99.90
42907;DHT22;28552;51.146;6.576;2024-03-08T22:53:24;3.70;99.90
42907;DHT22;28552;51.146;6.576;2024-03-08T22:56:28;3.80;99.90
42907;DHT22;28552;51.146;6.576;2024-03-08T22:59:29;3.80;99.90
42907;DHT22;28552;51.146;6.576;2024-03-08T23:02:29;3.90;99.90
42907;DHT22;28552;51.146;6.576;2024-03-08T23:05:32;4.00;99.90
42907;DHT22;28552;51.146;6.576;2024-03-08T23:08:34;4.10;99.90
42907;DHT22;28552;51.146;6.576;2024-03-08T23:11:34;4.30;99.90
42907;DHT22;28552;51.146;6.576;2024-03-08T23:14:37;4.40;99.90
42907;DHT22;28552;51.146;6.576;2024-03-08T23:17:41;4.40;99.90
42907;DHT22;28552;51.146;6.576;2024-03-08T23:20:42;4.50;99.90
42907;DHT22;28552;51.146;6.576;2024-03-08T23:23:42;4.60;99.90
42907;DHT22;28552;51.146;6.576;2024-03-08T23:26:43;4.70;99.90
42907;DHT22;28552;51.146;6.576;2024-03-08T23:29:45;4.60;99.90
42907;DHT22;28552;51.146;6.576;2024-03-08T23:32:46;4.60;99.90
42907;DHT22;28552;51.146;6.576;2024-03-08T23:35:47;4.60;99.90
42907;DHT22;28552;51.146;6.576;2024-03-08T23:38:49;4.60;99.90
42907;DHT22;28552;51.146;6.576;2024-03-08T23:41:51;4.60;99.90
42907;DHT22;28552;51.146;6.576;2024-03-08T23:44:51;4.60;99.90
42907;DHT22;28552;51.146;6.576;2024-03-08T23:47:54;4.60;99.90
42907;DHT22;28552;51.146;6.576;2024-03-08T23:50:56;4.60;99.90
42907;DHT22;28552;51.146;6.576;2024-03-08T23:53:56;4.60;99.90
